SLCB/CBB METAR and TAF weather

Enter ICAO airport designator
Station Type Date Time Source
SLCB METAR 2019/08/22 15:00 UTC NOAA

SLCB 221500Z 25003KT 9999 NSC 22/03 Q1028


Station Type Date Time Source
SLCB Decoded METAR 2019/08/22 15:00 UTC NOAA

Station name not available
Aug 22, 2019 - 11:00 AM EDT / 2019.08.22 1500 UTC
Wind: from the WSW (250 degrees) at 3 MPH (3 KT):0
Visibility: greater than 7 mile(s):0
Temperature: 71 F (22 C)
Dew Point: 37 F (3 C)
Relative Humidity: 28%
Pressure (altimeter): 30.36 in. Hg (1028 hPa)
ob: SLCB 221500Z 25003KT 9999 NSC 22/03 Q1028
cycle: 15

Station Type Date Time Source
SLCB TAF 2019/08/22 12:36 UTC NOAA

TAF SLCB 221000Z 2212/2312 00000KT 9999 NSC TX28/2219Z TN07/2311Z
BECMG 2216/2218 23010KT
BECMG 2301/2303 00000KT

Example: see airport list